createdAt,value
2023-02-14T00:00:12.798Z,20.03
2023-02-14T00:02:39.367Z,22.47
2023-02-14T00:05:06.063Z,29.42
2023-02-14T00:07:32.415Z,29.32
2023-02-14T00:09:58.834Z,27.89
2023-02-14T00:12:25.300Z,31.69
2023-02-14T00:14:51.708Z,35.81
2023-02-14T00:17:18.207Z,34.05
2023-02-14T00:19:44.679Z,29.69
2023-02-14T00:22:11.144Z,28.45
2023-02-14T00:24:37.550Z,29.50
2023-02-14T00:27:03.963Z,28.91
2023-02-14T00:29:30.319Z,30.68
2023-02-14T00:31:56.895Z,34.20
2023-02-14T00:34:23.310Z,35.00
2023-02-14T00:36:49.717Z,27.76
2023-02-14T00:39:16.133Z,26.49
2023-02-14T00:41:42.559Z,29.28
2023-02-14T00:44:08.901Z,29.88
2023-02-14T00:46:35.341Z,29.95
2023-02-14T00:49:01.725Z,28.52
2023-02-14T00:51:28.088Z,23.90
2023-02-14T00:53:54.653Z,20.64
2023-02-14T00:56:21.031Z,21.65
2023-02-14T00:58:47.619Z,23.40
2023-02-14T01:01:17.113Z,26.74
2023-02-14T01:03:43.625Z,28.70
2023-02-14T01:06:10.056Z,28.82
2023-02-14T01:08:36.442Z,26.45
2023-02-14T01:11:02.872Z,23.68
2023-02-14T01:13:29.231Z,21.78
2023-02-14T01:15:55.638Z,21.13
2023-02-14T01:18:22.020Z,21.87
2023-02-14T01:20:48.566Z,22.11
2023-02-14T01:23:14.956Z,20.14
2023-02-14T01:25:41.430Z,19.44
2023-02-14T01:28:08.032Z,19.16
2023-02-14T01:30:34.440Z,18.97
2023-02-14T01:33:00.882Z,22.18
2023-02-14T01:35:27.323Z,24.26
2023-02-14T01:37:53.748Z,25.41
2023-02-14T01:40:20.158Z,24.81
2023-02-14T01:42:46.704Z,24.47
2023-02-14T01:45:13.145Z,25.13
2023-02-14T01:47:39.589Z,22.31
2023-02-14T01:50:06.031Z,23.81
2023-02-14T01:52:32.420Z,24.01
2023-02-14T01:54:58.781Z,27.15
2023-02-14T01:57:25.237Z,25.52
2023-02-14T01:59:51.611Z,19.71
2023-02-14T02:02:18.091Z,17.38
2023-02-14T02:04:44.566Z,16.41
2023-02-14T02:07:11.034Z,17.35
2023-02-14T02:09:37.501Z,15.95
2023-02-14T02:12:03.932Z,15.70
2023-02-14T02:14:30.452Z,19.12
2023-02-14T02:16:56.951Z,21.61
2023-02-14T02:19:23.420Z,21.92
2023-02-14T02:21:49.785Z,21.35
2023-02-14T02:24:16.190Z,22.39
2023-02-14T02:26:42.551Z,24.24
2023-02-14T02:29:08.954Z,21.78
2023-02-14T02:31:35.443Z,19.74
2023-02-14T02:34:01.950Z,19.20
2023-02-14T02:36:28.458Z,20.11
2023-02-14T02:38:54.881Z,20.01
2023-02-14T02:41:21.367Z,21.63
2023-02-14T02:43:47.752Z,24.06
2023-02-14T02:46:14.178Z,27.17
2023-02-14T02:48:40.592Z,28.90
2023-02-14T02:51:07.662Z,26.34
2023-02-14T02:53:34.117Z,29.61
2023-02-14T02:56:00.570Z,27.76
2023-02-14T02:58:27.020Z,24.26
2023-02-14T03:00:53.534Z,25.71
2023-02-14T03:03:19.953Z,26.10
2023-02-14T03:05:46.354Z,27.76
2023-02-14T03:08:12.835Z,30.94
2023-02-14T03:10:39.350Z,31.16
2023-02-14T03:13:06.829Z,29.83
2023-02-14T03:15:33.278Z,29.31
2023-02-14T03:17:59.730Z,23.86
2023-02-14T03:20:26.123Z,19.23
2023-02-14T03:22:52.462Z,19.94
2023-02-14T03:25:18.982Z,19.76
2023-02-14T03:27:45.404Z,21.44
2023-02-14T03:30:11.916Z,23.12
2023-02-14T03:32:38.468Z,25.47
2023-02-14T03:35:04.969Z,26.79
2023-02-14T03:37:31.385Z,27.68
2023-02-14T03:39:57.836Z,26.56
2023-02-14T03:42:24.189Z,24.82
2023-02-14T03:44:50.676Z,22.21
2023-02-14T03:47:17.136Z,21.25
2023-02-14T03:49:43.537Z,23.90
2023-02-14T03:52:10.237Z,26.61
2023-02-14T03:54:36.697Z,28.25
2023-02-14T03:57:03.227Z,29.29
2023-02-14T03:59:29.661Z,28.26
2023-02-14T04:01:56.149Z,27.72
2023-02-14T04:04:22.639Z,26.56
2023-02-14T04:06:49.073Z,24.96
2023-02-14T04:09:15.517Z,23.52
2023-02-14T04:11:42.034Z,22.94
2023-02-14T04:14:08.475Z,25.34
2023-02-14T04:16:34.865Z,28.34
2023-02-14T04:19:01.239Z,29.22
2023-02-14T04:21:27.677Z,24.39
2023-02-14T04:23:54.230Z,19.79
2023-02-14T04:26:22.673Z,20.19
2023-02-14T04:28:49.025Z,23.02
2023-02-14T04:31:15.479Z,23.92
2023-02-14T04:33:41.893Z,25.07
2023-02-14T04:36:08.301Z,28.91
2023-02-14T04:38:34.689Z,27.19
2023-02-14T04:41:03.247Z,25.48
2023-02-14T04:43:29.709Z,22.01
2023-02-14T04:45:56.155Z,18.57
2023-02-14T04:48:22.551Z,17.37
2023-02-14T04:50:49.006Z,17.58
2023-02-14T04:53:15.472Z,18.33
2023-02-14T04:55:41.950Z,15.62
2023-02-14T04:58:08.361Z,19.20
2023-02-14T05:00:34.832Z,18.18
2023-02-14T05:03:01.230Z,16.89
2023-02-14T05:05:27.603Z,17.49
2023-02-14T05:07:54.008Z,19.21
2023-02-14T05:10:20.406Z,21.52
2023-02-14T05:12:47.014Z,25.15
2023-02-14T05:15:13.617Z,24.40
2023-02-14T05:17:40.042Z,24.18
2023-02-14T05:20:06.445Z,23.35
2023-02-14T05:22:32.913Z,19.65
2023-02-14T05:24:59.339Z,19.84
2023-02-14T05:27:25.757Z,23.79
2023-02-14T05:29:52.141Z,22.43
2023-02-14T05:32:18.547Z,21.66
2023-02-14T05:34:44.950Z,20.60
2023-02-14T05:37:11.339Z,21.33
2023-02-14T05:39:37.799Z,23.24
2023-02-14T05:42:05.462Z,24.28
2023-02-14T05:44:31.835Z,24.52
2023-02-14T05:46:58.213Z,24.93
2023-02-14T05:49:24.683Z,25.66
2023-02-14T05:51:51.115Z,25.68
2023-02-14T05:54:17.501Z,23.84
2023-02-14T05:56:43.876Z,20.44
2023-02-14T05:59:10.376Z,19.43
2023-02-14T06:01:36.785Z,20.69
2023-02-14T06:04:03.306Z,20.86
2023-02-14T06:06:29.746Z,24.72
2023-02-14T06:08:56.223Z,23.95
2023-02-14T06:11:22.656Z,24.76
2023-02-14T06:13:51.074Z,25.18
2023-02-14T06:16:17.498Z,28.29
2023-02-14T06:18:43.944Z,28.06
2023-02-14T06:21:10.331Z,27.13
2023-02-14T06:23:36.688Z,25.09
2023-02-14T06:26:03.117Z,22.58
2023-02-14T06:28:29.545Z,23.71
2023-02-14T06:30:55.996Z,24.30
2023-02-14T06:33:22.494Z,24.17
2023-02-14T06:35:48.972Z,20.28
2023-02-14T06:38:15.368Z,18.78
2023-02-14T06:40:41.888Z,19.92
2023-02-14T06:43:09.282Z,22.65
2023-02-14T06:45:35.729Z,24.54
2023-02-14T06:48:06.701Z,26.72
2023-02-14T06:50:35.328Z,28.87
2023-02-14T06:53:02.030Z,28.99
2023-02-14T06:55:28.497Z,28.18
2023-02-14T06:57:55.008Z,27.49
2023-02-14T07:00:21.458Z,27.23
2023-02-14T07:02:49.183Z,28.24
2023-02-14T07:05:15.622Z,28.05
2023-02-14T07:07:42.112Z,28.71
2023-02-14T07:10:08.522Z,28.45
2023-02-14T07:12:34.961Z,29.13
2023-02-14T07:15:01.495Z,29.21
2023-02-14T07:17:27.935Z,29.16
2023-02-14T07:19:54.412Z,27.11
2023-02-14T07:22:20.873Z,24.84
2023-02-14T07:24:47.297Z,25.41
2023-02-14T07:27:23.887Z,25.57
2023-02-14T07:29:50.328Z,24.43
2023-02-14T07:32:17.831Z,23.87
2023-02-14T07:34:44.330Z,24.68
2023-02-14T07:37:10.715Z,26.89
2023-02-14T07:39:37.308Z,31.12
2023-02-14T07:42:03.761Z,32.29
2023-02-14T07:44:30.399Z,27.81
2023-02-14T07:46:56.925Z,26.75
2023-02-14T07:49:23.377Z,26.89
2023-02-14T07:51:49.813Z,25.10
2023-02-14T07:54:16.285Z,25.09
2023-02-14T07:56:42.917Z,27.01
2023-02-14T07:59:09.302Z,31.06
2023-02-14T08:01:42.940Z,26.81
2023-02-14T08:04:09.362Z,26.43
2023-02-14T08:06:35.823Z,28.09
2023-02-14T08:09:05.275Z,27.85
2023-02-14T08:11:33.500Z,28.10
2023-02-14T08:14:00.101Z,28.14
2023-02-14T08:16:26.717Z,27.75
2023-02-14T08:18:53.263Z,26.80
2023-02-14T08:21:19.793Z,26.78
2023-02-14T08:23:47.620Z,26.59
2023-02-14T08:26:14.149Z,30.95
2023-02-14T08:28:40.597Z,32.11
2023-02-14T08:31:07.109Z,29.82
2023-02-14T08:33:33.671Z,28.54
2023-02-14T08:36:00.193Z,29.16
2023-02-14T08:38:26.742Z,28.31
2023-02-14T08:40:57.119Z,47.51
2023-02-14T08:43:23.684Z,48.36
2023-02-14T08:45:52.281Z,31.89
2023-02-14T08:48:18.864Z,29.50
2023-02-14T08:50:45.370Z,28.86
2023-02-14T08:53:11.850Z,29.54
2023-02-14T08:55:38.338Z,25.85
2023-02-14T08:58:04.825Z,23.49
2023-02-14T09:00:31.651Z,26.69
2023-02-14T09:02:58.197Z,28.30
2023-02-14T09:05:24.717Z,29.52
2023-02-14T09:07:51.527Z,28.98
2023-02-14T09:10:18.168Z,27.79
2023-02-14T09:12:44.725Z,26.81
2023-02-14T09:15:11.391Z,27.22
2023-02-14T09:17:37.926Z,26.94
2023-02-14T09:20:04.416Z,26.48
2023-02-14T09:22:30.959Z,26.46
2023-02-14T09:24:57.484Z,25.60
2023-02-14T09:27:23.987Z,26.59
2023-02-14T09:29:50.491Z,26.76
2023-02-14T09:32:17.034Z,28.48
2023-02-14T09:34:45.786Z,32.87
2023-02-14T09:37:12.308Z,34.32
2023-02-14T09:39:38.830Z,35.35
2023-02-14T09:42:05.377Z,37.43
2023-02-14T09:44:31.879Z,38.63
2023-02-14T09:46:58.336Z,39.58
2023-02-14T09:49:24.967Z,42.88
2023-02-14T09:51:51.636Z,44.09
2023-02-14T09:54:18.178Z,44.85
2023-02-14T09:56:51.210Z,46.29
2023-02-14T09:59:18.332Z,44.79
2023-02-14T10:01:44.972Z,43.46
2023-02-14T10:04:11.527Z,42.00
2023-02-14T10:06:38.049Z,41.85
2023-02-14T10:09:05.437Z,43.53
2023-02-14T10:11:31.850Z,43.31
2023-02-14T10:13:58.401Z,42.57
2023-02-14T10:16:26.872Z,39.76
2023-02-14T10:18:53.862Z,40.54
2023-02-14T10:21:21.335Z,41.81
2023-02-14T10:23:47.990Z,42.32
2023-02-14T10:26:14.452Z,41.95
2023-02-14T10:28:41.037Z,41.48
2023-02-14T10:31:13.786Z,42.01
2023-02-14T10:33:40.260Z,42.08
2023-02-14T10:36:06.800Z,42.18
2023-02-14T10:38:33.272Z,42.66
2023-02-14T10:40:59.982Z,42.72
2023-02-14T10:43:26.665Z,43.76
2023-02-14T10:45:53.145Z,44.18
2023-02-14T10:48:19.808Z,44.24
2023-02-14T10:50:46.465Z,44.28
2023-02-14T10:53:12.998Z,43.77
2023-02-14T10:55:41.551Z,45.05
2023-02-14T10:58:08.204Z,43.89
2023-02-14T11:00:34.773Z,44.83
2023-02-14T11:03:01.328Z,45.76
2023-02-14T11:05:27.884Z,44.86
2023-02-14T11:07:54.395Z,45.79
2023-02-14T11:10:20.947Z,46.23
2023-02-14T11:12:47.909Z,48.58
2023-02-14T11:15:14.382Z,48.36
2023-02-14T11:17:40.970Z,49.86
2023-02-14T11:22:47.824Z,51.95
2023-02-14T11:25:14.339Z,52.02
2023-02-14T11:27:40.833Z,52.16
2023-02-14T11:30:07.354Z,52.35
2023-02-14T11:32:33.800Z,52.07
2023-02-14T11:35:00.289Z,51.06
2023-02-14T11:37:26.828Z,51.15
2023-02-14T11:39:53.322Z,52.18
2023-02-14T11:42:19.764Z,51.27
2023-02-14T11:44:46.367Z,52.72
2023-02-14T11:47:12.899Z,52.02
2023-02-14T11:49:39.548Z,51.84
2023-02-14T11:52:06.054Z,52.79
2023-02-14T11:54:32.561Z,51.83
2023-02-14T11:56:58.983Z,52.24
2023-02-14T11:59:26.527Z,51.70
2023-02-14T12:01:53.102Z,51.95
2023-02-14T12:04:19.669Z,52.35
2023-02-14T12:06:46.150Z,52.37
2023-02-14T12:09:12.797Z,52.38
2023-02-14T12:14:29.892Z,52.06
2023-02-14T12:16:56.381Z,53.27
2023-02-14T12:19:22.849Z,52.88
2023-02-14T12:21:49.290Z,52.53
2023-02-14T12:24:15.906Z,53.26
2023-02-14T12:26:42.538Z,53.03
2023-02-14T12:29:09.048Z,52.56
2023-02-14T12:31:35.570Z,52.93
2023-02-14T12:34:02.101Z,52.64
2023-02-14T12:36:28.569Z,51.96
2023-02-14T12:38:55.089Z,52.67
2023-02-14T12:41:22.955Z,52.94
2023-02-14T12:43:49.482Z,53.98
2023-02-14T12:46:15.952Z,54.30
2023-02-14T12:48:42.412Z,54.50
2023-02-14T12:51:08.803Z,54.49
2023-02-14T12:53:35.217Z,53.57
2023-02-14T12:56:01.755Z,54.43
2023-02-14T12:58:28.114Z,54.44
2023-02-14T13:03:44.813Z,53.58
2023-02-14T13:06:13.110Z,52.69
2023-02-14T13:08:39.617Z,53.35
2023-02-14T13:11:06.405Z,52.27
2023-02-14T13:13:33.221Z,52.97
2023-02-14T13:15:59.792Z,54.84
2023-02-14T13:18:26.696Z,53.14
2023-02-14T13:20:53.692Z,52.40
2023-02-14T13:23:20.162Z,52.74
2023-02-14T13:25:46.661Z,51.85
2023-02-14T13:28:13.080Z,52.71
2023-02-14T13:30:39.730Z,52.94
2023-02-14T13:33:06.222Z,52.77
2023-02-14T13:35:32.676Z,53.40
2023-02-14T13:37:59.132Z,51.89
2023-02-14T13:40:25.587Z,52.17
2023-02-14T13:42:52.090Z,52.61
2023-02-14T13:45:18.544Z,52.54
2023-02-14T13:47:45.041Z,53.22
2023-02-14T13:53:01.748Z,54.05
2023-02-14T13:55:28.430Z,52.47
2023-02-14T13:57:54.934Z,52.44
2023-02-14T14:00:21.371Z,51.90
2023-02-14T14:02:47.909Z,52.20
2023-02-14T14:05:15.468Z,52.51
2023-02-14T14:07:42.569Z,53.30
2023-02-14T14:10:09.032Z,53.58
2023-02-14T14:12:35.525Z,53.66
2023-02-14T14:15:02.049Z,53.34
2023-02-14T14:17:37.544Z,52.80
2023-02-14T14:20:05.115Z,50.94
2023-02-14T14:22:31.619Z,50.24
2023-02-14T14:24:58.086Z,50.01
2023-02-14T14:27:24.630Z,50.22
2023-02-14T14:29:53.040Z,50.82
2023-02-14T14:32:19.528Z,51.55
2023-02-14T14:34:47.000Z,50.94
2023-02-14T14:37:13.392Z,51.70
2023-02-14T14:39:39.854Z,52.03
2023-02-14T14:42:07.033Z,51.87
2023-02-14T14:44:33.607Z,51.04
2023-02-14T14:47:00.193Z,50.07
2023-02-14T14:49:26.571Z,49.85
2023-02-14T14:51:53.027Z,49.97
2023-02-14T14:54:19.442Z,48.54
2023-02-14T14:56:45.810Z,49.73
2023-02-14T14:59:12.214Z,51.40
2023-02-14T15:01:38.633Z,50.91
2023-02-14T15:04:05.054Z,51.31
2023-02-14T15:06:40.357Z,51.25
2023-02-14T15:09:06.833Z,50.48
2023-02-14T15:11:33.209Z,50.41
2023-02-14T15:13:59.700Z,50.07
2023-02-14T15:16:26.159Z,49.12
2023-02-14T15:18:52.706Z,50.22
2023-02-14T15:21:23.464Z,49.11
2023-02-14T15:26:35.844Z,47.00
2023-02-14T15:29:07.182Z,48.57
2023-02-14T15:31:33.656Z,48.92
2023-02-14T15:34:00.267Z,47.04
2023-02-14T15:36:26.676Z,47.31
2023-02-14T15:38:53.139Z,49.29
2023-02-14T15:41:19.586Z,48.13
2023-02-14T15:43:46.197Z,49.89
2023-02-14T15:46:12.759Z,49.84
2023-02-14T15:48:39.246Z,49.54
2023-02-14T15:51:05.880Z,48.18
2023-02-14T15:53:32.379Z,48.30
2023-02-14T15:55:58.849Z,50.44
2023-02-14T15:58:26.292Z,48.06
2023-02-14T16:00:52.633Z,47.36
2023-02-14T16:03:19.650Z,46.98
2023-02-14T16:05:49.773Z,49.07
2023-02-14T16:08:16.307Z,47.12
2023-02-14T16:10:42.703Z,44.72
2023-02-14T16:13:09.261Z,43.98
2023-02-14T16:15:35.819Z,46.11
2023-02-14T16:18:02.249Z,45.31
2023-02-14T16:20:28.730Z,45.46
2023-02-14T16:22:55.267Z,44.16
2023-02-14T16:25:21.752Z,45.03
2023-02-14T16:27:48.269Z,45.21
2023-02-14T16:30:14.795Z,45.72
2023-02-14T16:32:41.340Z,45.93
2023-02-14T16:35:07.809Z,44.80
2023-02-14T16:37:34.392Z,43.78
2023-02-14T16:40:00.906Z,43.57
2023-02-14T16:42:27.451Z,44.44
2023-02-14T16:44:53.976Z,43.56
2023-02-14T16:47:20.570Z,44.32
2023-02-14T16:49:47.062Z,44.56
2023-02-14T16:52:13.497Z,43.76
2023-02-14T16:57:20.304Z,37.42
2023-02-14T16:59:46.723Z,35.89
2023-02-14T17:02:13.148Z,38.44
2023-02-14T17:04:39.598Z,40.03
2023-02-14T17:07:06.059Z,42.09
2023-02-14T17:09:32.430Z,43.11
2023-02-14T17:11:58.915Z,42.62
2023-02-14T17:14:25.631Z,42.27
2023-02-14T17:16:56.582Z,43.83
2023-02-14T17:19:23.000Z,43.92
2023-02-14T17:21:49.480Z,32.19
2023-02-14T17:24:15.979Z,24.01
2023-02-14T17:26:42.450Z,25.01
2023-02-14T17:29:08.862Z,29.68
2023-02-14T17:31:35.500Z,50.75
2023-02-14T17:34:01.953Z,63.46
2023-02-14T17:36:28.431Z,35.23
2023-02-14T17:38:54.913Z,29.49
2023-02-14T17:41:26.974Z,29.65
2023-02-14T17:43:53.371Z,31.29
2023-02-14T17:46:19.838Z,32.55
2023-02-14T17:48:46.230Z,34.12
2023-02-14T17:54:03.183Z,32.54
2023-02-14T17:56:29.639Z,33.09
2023-02-14T17:58:56.239Z,91.67
2023-02-14T18:01:22.767Z,194.69
2023-02-14T18:03:49.290Z,629.87
2023-02-14T18:06:15.769Z,389.00
2023-02-14T18:08:42.265Z,100.67
2023-02-14T18:11:08.722Z,37.65
2023-02-14T18:13:35.151Z,29.26
2023-02-14T18:16:01.599Z,30.85
2023-02-14T18:18:35.294Z,30.26
2023-02-14T18:21:02.141Z,82.08
2023-02-14T18:23:28.835Z,88.55
2023-02-14T18:25:55.715Z,188.30
2023-02-14T18:28:24.013Z,77.58
2023-02-14T18:30:53.512Z,28.67
2023-02-14T18:33:24.122Z,23.06
2023-02-14T18:35:51.961Z,24.44
2023-02-14T18:38:21.406Z,23.36
2023-02-14T18:40:47.860Z,20.79
2023-02-14T18:43:16.772Z,22.57
2023-02-14T18:45:43.280Z,26.91
2023-02-14T18:48:09.711Z,26.06
2023-02-14T18:50:36.175Z,25.94
2023-02-14T18:53:02.723Z,26.31
2023-02-14T18:55:34.414Z,27.79
2023-02-14T18:58:00.907Z,31.80
2023-02-14T19:00:33.242Z,34.13
2023-02-14T19:02:59.785Z,37.06
2023-02-14T19:05:26.295Z,33.49
2023-02-14T19:07:52.699Z,34.50
2023-02-14T19:10:19.172Z,36.88
2023-02-14T19:12:45.639Z,38.16
2023-02-14T19:15:12.076Z,33.39
2023-02-14T19:17:38.504Z,29.47
2023-02-14T19:20:04.919Z,23.12
2023-02-14T19:22:31.562Z,26.89
2023-02-14T19:24:58.006Z,29.70
2023-02-14T19:27:32.078Z,33.62
2023-02-14T19:29:59.407Z,37.20
2023-02-14T19:32:25.797Z,43.27
2023-02-14T19:34:52.564Z,44.52
2023-02-14T19:37:19.039Z,37.87
2023-02-14T19:39:45.428Z,31.34
2023-02-14T19:42:14.023Z,30.39
2023-02-14T19:44:40.448Z,30.80
2023-02-14T19:47:23.335Z,37.43
2023-02-14T19:49:50.037Z,36.52
2023-02-14T19:52:25.817Z,30.13
2023-02-14T19:54:53.142Z,34.38
2023-02-14T19:57:19.604Z,39.71
2023-02-14T19:59:46.164Z,45.85
2023-02-14T20:02:12.615Z,37.54
2023-02-14T20:04:39.066Z,26.81
2023-02-14T20:07:05.534Z,28.52
2023-02-14T20:09:31.972Z,28.17
2023-02-14T20:11:58.503Z,28.27
2023-02-14T20:14:24.918Z,34.22
2023-02-14T20:16:51.471Z,38.07
2023-02-14T20:19:18.001Z,37.93
2023-02-14T20:21:44.424Z,37.64
2023-02-14T20:24:10.950Z,42.50
2023-02-14T20:26:39.860Z,42.16
2023-02-14T20:29:06.390Z,41.53
2023-02-14T20:31:33.040Z,40.12
2023-02-14T20:33:59.576Z,44.16
2023-02-14T20:36:25.976Z,44.75
2023-02-14T20:38:53.128Z,45.32
2023-02-14T20:41:19.643Z,42.34
2023-02-14T20:43:46.271Z,46.27
2023-02-14T20:46:13.819Z,34.75
2023-02-14T20:48:47.690Z,32.94
2023-02-14T20:51:16.423Z,26.05
2023-02-14T20:53:47.573Z,21.80
2023-02-14T20:56:14.010Z,17.79
2023-02-14T20:58:40.446Z,23.12
2023-02-14T21:01:07.061Z,22.53
2023-02-14T21:03:33.546Z,21.76
2023-02-14T21:06:00.016Z,18.23
2023-02-14T21:08:27.536Z,16.20
2023-02-14T21:10:53.918Z,12.68
2023-02-14T21:13:20.418Z,10.17
2023-02-14T21:15:46.957Z,8.72
2023-02-14T21:18:14.041Z,8.34
2023-02-14T21:20:40.446Z,9.34
2023-02-14T21:23:06.850Z,23.50
2023-02-14T21:25:33.327Z,13.90
2023-02-14T21:27:59.743Z,10.79
2023-02-14T21:30:26.305Z,14.68
2023-02-14T21:32:52.828Z,19.08
2023-02-14T21:35:23.404Z,20.75
2023-02-14T21:37:52.329Z,20.19
2023-02-14T21:40:18.881Z,20.22
2023-02-14T21:42:46.522Z,22.03
2023-02-14T21:45:13.030Z,19.30
2023-02-14T21:47:39.486Z,18.62
2023-02-14T21:50:06.251Z,18.64
2023-02-14T21:52:32.713Z,17.81
2023-02-14T21:54:59.126Z,15.71
2023-02-14T21:57:25.594Z,14.83
2023-02-14T21:59:51.982Z,14.61
2023-02-14T22:02:18.527Z,13.52
2023-02-14T22:04:45.927Z,17.49
2023-02-14T22:07:12.351Z,18.57
2023-02-14T22:09:38.795Z,20.64
2023-02-14T22:12:05.276Z,28.41
2023-02-14T22:14:31.739Z,25.14
2023-02-14T22:16:58.180Z,19.53
2023-02-14T22:19:24.651Z,16.29
2023-02-14T22:21:51.139Z,17.19
2023-02-14T22:24:17.611Z,19.69
2023-02-14T22:26:44.041Z,22.58
2023-02-14T22:29:10.536Z,24.76
2023-02-14T22:31:37.047Z,23.96
2023-02-14T22:34:03.563Z,29.07
2023-02-14T22:36:29.974Z,27.49
2023-02-14T22:38:56.353Z,23.61
2023-02-14T22:41:22.728Z,25.87
2023-02-14T22:43:49.163Z,28.23
2023-02-14T22:46:23.097Z,27.37
2023-02-14T22:48:49.527Z,30.33
2023-02-14T22:51:15.962Z,35.62
2023-02-14T22:53:42.332Z,26.00
2023-02-14T22:56:08.830Z,18.16
2023-02-14T22:58:35.968Z,16.30
2023-02-14T23:01:02.330Z,17.91
2023-02-14T23:03:28.707Z,21.53
2023-02-14T23:05:55.101Z,19.49
2023-02-14T23:08:21.534Z,17.87
2023-02-14T23:10:47.995Z,20.65
2023-02-14T23:13:16.573Z,17.51
2023-02-14T23:15:42.985Z,15.43
2023-02-14T23:18:09.337Z,13.02
2023-02-14T23:20:36.174Z,13.29
2023-02-14T23:23:02.996Z,14.36
2023-02-14T23:25:30.740Z,17.71
2023-02-14T23:28:04.804Z,19.06
2023-02-14T23:30:31.208Z,21.50
2023-02-14T23:33:01.436Z,29.69
2023-02-14T23:35:27.844Z,25.56
2023-02-14T23:40:34.750Z,19.81
2023-02-14T23:43:01.216Z,23.08
2023-02-14T23:48:07.918Z,21.12
2023-02-14T23:50:34.410Z,20.18
2023-02-14T23:53:00.966Z,17.48
2023-02-14T23:55:27.353Z,16.38
2023-02-14T23:57:53.826Z,17.45
